createdAt,value
2023-10-09T00:00:37.306Z,15.40
2023-10-09T00:03:07.553Z,15.40
2023-10-09T00:05:46.952Z,15.40
2023-10-09T00:08:19.772Z,15.40
2023-10-09T00:10:51.290Z,15.40
2023-10-09T00:13:20.078Z,15.40
2023-10-09T00:15:54.197Z,15.40
2023-10-09T00:18:30.266Z,15.40
2023-10-09T00:21:11.974Z,15.40
2023-10-09T00:23:40.422Z,15.30
2023-10-09T00:26:12.337Z,15.30
2023-10-09T00:28:52.290Z,15.30
2023-10-09T00:31:31.124Z,15.40
2023-10-09T00:34:04.777Z,15.40
2023-10-09T00:36:34.113Z,15.40
2023-10-09T00:39:14.416Z,15.40
2023-10-09T00:41:43.031Z,15.40
2023-10-09T00:44:12.284Z,15.40
2023-10-09T00:46:44.303Z,15.40
2023-10-09T00:49:12.342Z,15.40
2023-10-09T00:51:57.318Z,15.50
2023-10-09T00:54:29.710Z,15.50
2023-10-09T00:57:07.738Z,15.50
2023-10-09T00:59:40.123Z,15.50
2023-10-09T01:02:10.994Z,15.50
2023-10-09T01:04:42.416Z,15.50
2023-10-09T01:07:12.063Z,15.50
2023-10-09T01:09:44.085Z,15.40
2023-10-09T01:12:18.106Z,15.40
2023-10-09T01:14:47.313Z,15.40
2023-10-09T01:17:31.790Z,15.40
2023-10-09T01:20:04.621Z,15.40
2023-10-09T01:22:32.797Z,15.40
2023-10-09T01:25:07.051Z,15.40
2023-10-09T01:27:35.250Z,15.40
2023-10-09T01:30:03.290Z,15.40
2023-10-09T01:32:31.352Z,15.40
2023-10-09T01:34:59.275Z,15.40
2023-10-09T01:37:30.616Z,15.40
2023-10-09T01:40:00.994Z,15.40
2023-10-09T01:42:35.608Z,15.30
2023-10-09T01:45:17.146Z,15.30
2023-10-09T01:47:52.948Z,15.30
2023-10-09T01:50:25.881Z,15.30
2023-10-09T01:52:54.222Z,15.30
2023-10-09T01:55:34.100Z,15.30
2023-10-09T01:58:06.827Z,15.30
2023-10-09T02:00:43.417Z,15.30
2023-10-09T02:03:16.419Z,15.30
2023-10-09T02:05:44.591Z,15.30
2023-10-09T02:08:13.991Z,15.30
2023-10-09T02:10:48.664Z,15.30
2023-10-09T02:13:19.333Z,15.30
2023-10-09T02:16:00.162Z,15.30
2023-10-09T02:18:40.945Z,15.30
2023-10-09T02:21:15.817Z,15.30
2023-10-09T02:23:48.005Z,15.20
2023-10-09T02:26:21.336Z,15.20
2023-10-09T02:29:00.178Z,15.20
2023-10-09T02:31:37.272Z,15.20
2023-10-09T02:34:06.808Z,15.10
2023-10-09T02:36:39.660Z,15.10
2023-10-09T02:39:08.908Z,15.10
2023-10-09T02:41:43.315Z,15.10
2023-10-09T02:44:13.133Z,15.10
2023-10-09T02:46:41.512Z,15.10
2023-10-09T02:49:11.154Z,15.10
2023-10-09T02:51:43.006Z,15.10
2023-10-09T02:54:20.625Z,15.00
2023-10-09T02:56:56.219Z,15.00
2023-10-09T02:59:26.132Z,15.00
2023-10-09T03:01:54.821Z,15.00
2023-10-09T03:04:25.343Z,14.90
2023-10-09T03:06:58.211Z,14.80
2023-10-09T03:09:29.563Z,14.70
2023-10-09T03:12:03.626Z,14.70
2023-10-09T03:14:36.540Z,14.60
2023-10-09T03:17:05.142Z,14.60
2023-10-09T03:19:38.728Z,14.50
2023-10-09T03:22:10.538Z,14.50
2023-10-09T03:24:40.343Z,14.50
2023-10-09T03:27:08.518Z,14.50
2023-10-09T03:29:38.250Z,14.50
2023-10-09T03:32:08.034Z,14.60
2023-10-09T03:34:36.027Z,14.60
2023-10-09T03:37:07.462Z,14.60
2023-10-09T03:39:40.230Z,14.60
2023-10-09T03:42:20.504Z,14.60
2023-10-09T03:44:55.138Z,14.60
2023-10-09T03:47:25.328Z,14.60
2023-10-09T03:49:55.187Z,14.60
2023-10-09T03:52:27.285Z,14.60
2023-10-09T03:54:55.853Z,14.70
2023-10-09T03:57:24.735Z,14.70
2023-10-09T03:59:56.532Z,14.70
2023-10-09T04:02:24.998Z,14.60
2023-10-09T04:04:53.360Z,14.60
2023-10-09T04:07:22.571Z,14.50
2023-10-09T04:10:03.771Z,14.50
2023-10-09T04:12:32.492Z,14.50
2023-10-09T04:15:05.904Z,14.50
2023-10-09T04:17:37.512Z,14.50
2023-10-09T04:20:24.363Z,14.50
2023-10-09T04:22:52.681Z,14.50
2023-10-09T04:25:27.814Z,14.60
2023-10-09T04:28:04.617Z,14.60
2023-10-09T04:30:41.335Z,14.60
2023-10-09T04:33:29.389Z,14.60
2023-10-09T04:36:15.528Z,14.60
2023-10-09T04:38:56.921Z,14.60
2023-10-09T04:41:34.292Z,14.60
2023-10-09T04:44:20.373Z,14.60
2023-10-09T04:47:06.527Z,14.60
2023-10-09T04:49:50.854Z,14.50
2023-10-09T04:52:52.333Z,14.60
2023-10-09T04:55:25.534Z,14.60
2023-10-09T04:58:09.932Z,14.60
2023-10-09T05:00:49.524Z,14.60
2023-10-09T05:03:29.549Z,14.60
2023-10-09T05:06:01.235Z,14.60
2023-10-09T05:08:33.867Z,14.70
2023-10-09T05:11:17.679Z,14.60
2023-10-09T05:13:47.648Z,14.60
2023-10-09T05:16:19.555Z,14.60
2023-10-09T05:18:57.497Z,14.60
2023-10-09T05:21:37.157Z,14.50
2023-10-09T05:24:17.914Z,14.50
2023-10-09T05:27:15.561Z,14.50
2023-10-09T05:30:00.412Z,14.50
2023-10-09T05:32:36.285Z,14.50
2023-10-09T05:35:08.565Z,14.50
2023-10-09T05:37:44.420Z,14.40
2023-10-09T05:40:24.326Z,14.40
2023-10-09T05:43:04.567Z,14.50
2023-10-09T05:46:05.512Z,14.50
2023-10-09T05:48:55.724Z,14.60
2023-10-09T05:51:42.934Z,14.60
2023-10-09T05:54:24.830Z,14.60
2023-10-09T05:57:21.789Z,14.60
2023-10-09T06:00:07.363Z,14.60
2023-10-09T06:03:02.384Z,14.70
2023-10-09T06:05:42.767Z,14.70
2023-10-09T06:08:14.234Z,14.70
2023-10-09T06:10:42.822Z,14.70
2023-10-09T06:13:25.487Z,14.70
2023-10-09T06:16:10.617Z,14.70
2023-10-09T06:18:44.657Z,14.70
2023-10-09T06:21:27.253Z,14.70
2023-10-09T06:24:15.524Z,14.70
2023-10-09T06:26:53.294Z,14.70
2023-10-09T06:37:35.520Z,14.80
2023-10-09T06:40:32.400Z,14.80
2023-10-09T06:43:08.240Z,14.80
2023-10-09T06:45:46.101Z,14.90
2023-10-09T06:48:32.215Z,14.90
2023-10-09T06:51:08.959Z,14.90
2023-10-09T06:53:56.121Z,14.90
2023-10-09T06:56:27.155Z,15.00
2023-10-09T06:58:56.198Z,15.00
2023-10-09T07:01:40.896Z,15.00
2023-10-09T07:04:19.660Z,15.10
2023-10-09T07:06:52.200Z,15.10
2023-10-09T07:09:21.056Z,15.10
2023-10-09T07:12:11.075Z,15.10
2023-10-09T07:14:56.531Z,15.20
2023-10-09T07:17:27.806Z,15.20
2023-10-09T07:20:10.687Z,15.20
2023-10-09T07:22:53.680Z,15.30
2023-10-09T07:25:41.918Z,15.30
2023-10-09T07:28:30.472Z,15.30
2023-10-09T07:31:01.929Z,15.40
2023-10-09T07:33:55.735Z,15.40
2023-10-09T07:36:35.459Z,15.50
2023-10-09T07:39:04.286Z,15.50
2023-10-09T07:41:45.476Z,15.60
2023-10-09T07:44:35.654Z,15.70
2023-10-09T07:47:24.208Z,15.70
2023-10-09T07:49:54.948Z,15.80
2023-10-09T07:52:27.406Z,15.90
2023-10-09T07:55:02.658Z,16.00
2023-10-09T07:57:40.756Z,16.00
2023-10-09T08:00:29.816Z,16.10
2023-10-09T08:03:01.460Z,16.20
2023-10-09T08:05:34.485Z,16.20
2023-10-09T08:08:39.898Z,16.30
2023-10-09T08:11:35.784Z,16.40
2023-10-09T08:14:21.881Z,16.40
2023-10-09T08:16:50.481Z,16.50
2023-10-09T08:19:34.314Z,16.60
2023-10-09T08:22:34.941Z,16.60
2023-10-09T08:25:03.940Z,16.70
2023-10-09T08:27:55.938Z,16.70
2023-10-09T08:30:49.870Z,16.80
2023-10-09T08:34:22.554Z,16.80
2023-10-09T08:36:24.333Z,16.90
2023-10-09T08:38:53.410Z,16.90
2023-10-09T08:41:24.279Z,17.00
2023-10-09T08:43:53.888Z,17.10
2023-10-09T08:46:29.132Z,17.10
2023-10-09T08:48:59.492Z,17.20
2023-10-09T08:51:30.493Z,17.20
2023-10-09T08:53:59.062Z,17.30
2023-10-09T08:56:27.100Z,17.30
2023-10-09T08:58:56.853Z,17.30
2023-10-09T09:01:27.494Z,17.40
2023-10-09T09:03:57.545Z,17.40
2023-10-09T09:06:26.091Z,17.50
2023-10-09T09:09:00.773Z,17.50
2023-10-09T09:11:32.528Z,17.60
2023-10-09T09:14:06.270Z,17.60
2023-10-09T09:16:37.735Z,17.70
2023-10-09T09:19:18.732Z,17.70
2023-10-09T09:21:55.692Z,17.70
2023-10-09T09:24:32.398Z,17.80
2023-10-09T09:27:14.153Z,17.80
2023-10-09T09:29:53.756Z,17.80
2023-10-09T09:32:37.954Z,17.80
2023-10-09T09:35:06.879Z,17.90
2023-10-09T09:37:51.678Z,17.90
2023-10-09T09:40:34.236Z,17.90
2023-10-09T09:43:07.468Z,18.00
2023-10-09T09:45:37.827Z,18.00
2023-10-09T09:48:18.425Z,18.00
2023-10-09T09:50:48.703Z,18.00
2023-10-09T09:53:24.697Z,18.00
2023-10-09T09:55:59.716Z,18.00
2023-10-09T09:58:36.156Z,18.00
2023-10-09T10:01:19.467Z,18.10
2023-10-09T10:03:57.574Z,18.10
2023-10-09T10:06:33.899Z,18.10
2023-10-09T10:09:02.073Z,18.10
2023-10-09T10:11:45.817Z,18.20
2023-10-09T10:14:23.599Z,18.20
2023-10-09T10:17:09.538Z,18.30
2023-10-09T10:20:32.701Z,18.30
2023-10-09T10:23:27.091Z,18.40
2023-10-09T10:26:01.630Z,18.50
2023-10-09T10:28:47.043Z,18.50
2023-10-09T10:31:17.292Z,18.50
2023-10-09T10:34:12.148Z,18.60
2023-10-09T10:36:45.260Z,18.60
2023-10-09T10:39:22.755Z,18.70
2023-10-09T10:41:56.980Z,18.70
2023-10-09T10:44:44.279Z,18.70
2023-10-09T10:47:26.541Z,18.70
2023-10-09T10:50:00.451Z,18.70
2023-10-09T10:52:43.038Z,18.70
2023-10-09T10:55:36.896Z,18.70
2023-10-09T10:58:11.560Z,18.80
2023-10-09T11:01:01.342Z,18.90
2023-10-09T11:03:37.109Z,18.90
2023-10-09T11:06:16.700Z,18.90
2023-10-09T11:08:55.879Z,18.90
2023-10-09T11:11:42.337Z,18.90
2023-10-09T11:14:16.078Z,18.90
2023-10-09T11:16:48.873Z,19.00
2023-10-09T11:19:33.296Z,19.00
2023-10-09T11:22:16.337Z,19.00
2023-10-09T11:24:45.378Z,19.00
2023-10-09T11:27:21.691Z,19.00
2023-10-09T11:30:06.824Z,19.10
2023-10-09T11:32:39.775Z,19.10
2023-10-09T11:35:28.972Z,19.20
2023-10-09T11:38:01.600Z,19.30
2023-10-09T11:40:44.290Z,19.30
2023-10-09T11:43:16.620Z,19.40
2023-10-09T11:45:56.620Z,19.40
2023-10-09T11:48:33.066Z,19.50
2023-10-09T11:51:20.153Z,19.50
2023-10-09T11:53:51.195Z,19.50
2023-10-09T11:56:21.228Z,19.60
2023-10-09T11:58:52.255Z,19.60
2023-10-09T12:01:25.856Z,19.70
2023-10-09T12:03:59.536Z,19.70
2023-10-09T12:06:33.515Z,19.80
2023-10-09T12:09:02.134Z,19.80
2023-10-09T12:11:31.402Z,19.80
2023-10-09T12:14:02.513Z,19.90
2023-10-09T12:16:41.148Z,19.90
2023-10-09T12:19:10.541Z,19.90
2023-10-09T12:21:44.058Z,19.90
2023-10-09T12:24:13.431Z,19.90
2023-10-09T12:26:47.355Z,19.90
2023-10-09T12:29:20.817Z,20.00
2023-10-09T12:31:50.136Z,20.00
2023-10-09T12:34:19.753Z,20.00
2023-10-09T12:36:51.289Z,20.10
2023-10-09T12:39:19.965Z,20.10
2023-10-09T12:41:49.598Z,20.10
2023-10-09T12:44:20.209Z,20.20
2023-10-09T12:46:54.242Z,20.20
2023-10-09T12:49:26.521Z,20.20
2023-10-09T12:51:59.920Z,20.20
2023-10-09T12:54:30.549Z,20.30
2023-10-09T12:57:01.170Z,20.30
2023-10-09T12:59:30.744Z,20.30
2023-10-09T13:01:59.878Z,20.40
2023-10-09T13:04:33.191Z,20.40
2023-10-09T13:07:06.208Z,20.40
2023-10-09T13:09:43.957Z,20.40
2023-10-09T13:12:19.876Z,20.50
2023-10-09T13:14:54.209Z,20.50
2023-10-09T13:17:23.352Z,20.50
2023-10-09T13:19:52.465Z,20.50
2023-10-09T13:22:24.485Z,20.50
2023-10-09T13:25:04.690Z,20.50
2023-10-09T13:27:35.592Z,20.60
2023-10-09T13:30:09.687Z,20.60
2023-10-09T13:32:37.971Z,20.60
2023-10-09T13:35:07.963Z,20.60
2023-10-09T13:37:38.205Z,20.60
2023-10-09T13:40:11.650Z,20.60
2023-10-09T13:42:40.244Z,20.70
2023-10-09T13:45:28.213Z,20.70
2023-10-09T13:47:59.436Z,20.70
2023-10-09T13:50:34.194Z,20.70
2023-10-09T13:53:08.812Z,20.70
2023-10-09T13:55:44.539Z,20.70
2023-10-09T13:58:15.499Z,20.70
2023-10-09T14:00:47.784Z,20.70
2023-10-09T14:03:23.196Z,20.70
2023-10-09T14:05:56.126Z,20.80
2023-10-09T14:08:24.900Z,20.70
2023-10-09T14:10:53.644Z,20.70
2023-10-09T14:13:29.938Z,20.70
2023-10-09T14:16:04.369Z,20.80
2023-10-09T14:18:33.554Z,20.70
2023-10-09T14:21:06.294Z,20.70
2023-10-09T14:23:36.507Z,20.70
2023-10-09T14:26:07.591Z,20.70
2023-10-09T14:28:38.732Z,20.70
2023-10-09T14:31:14.819Z,20.70
2023-10-09T14:33:49.528Z,20.60
2023-10-09T14:36:21.778Z,20.60
2023-10-09T14:38:53.697Z,20.60
2023-10-09T14:41:24.612Z,20.60
2023-10-09T14:43:53.758Z,20.60
2023-10-09T14:46:26.933Z,20.60
2023-10-09T14:48:55.500Z,20.60
2023-10-09T14:51:29.109Z,20.60
2023-10-09T14:54:03.037Z,20.50
2023-10-09T14:56:31.870Z,20.50
2023-10-09T14:59:05.921Z,20.50
2023-10-09T15:01:37.114Z,20.50
2023-10-09T15:04:05.882Z,20.50
2023-10-09T15:06:36.361Z,20.50
2023-10-09T15:09:10.443Z,20.50
2023-10-09T15:11:41.371Z,20.40
2023-10-09T15:14:11.795Z,20.40
2023-10-09T15:16:43.893Z,20.40
2023-10-09T15:19:12.978Z,20.40
2023-10-09T15:21:45.246Z,20.40
2023-10-09T15:24:19.403Z,20.40
2023-10-09T15:26:53.590Z,20.30
2023-10-09T15:29:24.692Z,20.30
2023-10-09T15:31:55.318Z,20.30
2023-10-09T15:34:25.675Z,20.30
2023-10-09T15:36:54.711Z,20.20
2023-10-09T15:39:25.324Z,20.20
2023-10-09T15:41:54.052Z,20.20
2023-10-09T15:44:27.967Z,20.20
2023-10-09T15:47:01.090Z,20.10
2023-10-09T15:49:31.565Z,20.10
2023-10-09T15:52:02.319Z,20.10
2023-10-09T15:54:30.793Z,20.10
2023-10-09T15:57:12.582Z,20.10
2023-10-09T15:59:41.919Z,20.00
2023-10-09T16:02:12.368Z,20.10
2023-10-09T16:04:44.789Z,20.00
2023-10-09T16:07:14.338Z,20.00
2023-10-09T16:09:42.605Z,20.00
2023-10-09T16:12:14.101Z,20.00
2023-10-09T16:14:42.929Z,20.00
2023-10-09T16:17:13.568Z,20.00
2023-10-09T16:19:43.762Z,20.00
2023-10-09T16:22:14.178Z,19.90
2023-10-09T16:24:42.774Z,19.90
2023-10-09T16:27:15.545Z,19.90
2023-10-09T16:29:46.132Z,19.90
2023-10-09T16:32:15.990Z,19.80
2023-10-09T16:34:45.424Z,19.80
2023-10-09T16:37:15.175Z,19.80
2023-10-09T16:39:48.411Z,19.70
2023-10-09T16:42:17.228Z,19.70
2023-10-09T16:44:49.135Z,19.70
2023-10-09T16:47:19.291Z,19.60
2023-10-09T16:49:53.397Z,19.60
2023-10-09T16:52:21.573Z,19.50
2023-10-09T16:54:51.298Z,19.50
2023-10-09T16:57:20.187Z,19.50
2023-10-09T16:59:50.384Z,19.40
2023-10-09T17:02:39.665Z,19.40
2023-10-09T17:05:13.799Z,19.40
2023-10-09T17:07:45.979Z,19.30
2023-10-09T17:10:18.264Z,19.30
2023-10-09T17:12:47.683Z,19.30
2023-10-09T17:15:17.792Z,19.20
2023-10-09T17:17:50.915Z,19.20
2023-10-09T17:20:22.613Z,19.20
2023-10-09T17:22:52.037Z,19.10
2023-10-09T17:25:24.286Z,19.10
2023-10-09T17:27:54.817Z,19.10
2023-10-09T17:30:23.541Z,19.10
2023-10-09T17:32:53.027Z,19.00
2023-10-09T17:35:21.414Z,19.00
2023-10-09T17:37:54.629Z,19.00
2023-10-09T17:40:27.029Z,18.90
2023-10-09T17:42:57.714Z,18.80
2023-10-09T17:45:26.393Z,18.80
2023-10-09T17:48:01.607Z,18.70
2023-10-09T17:50:31.526Z,18.60
2023-10-09T17:53:02.793Z,18.60
2023-10-09T17:55:31.469Z,18.60
2023-10-09T17:58:00.899Z,18.60
2023-10-09T18:00:35.511Z,18.60
2023-10-09T18:03:31.502Z,18.60
2023-10-09T18:06:07.435Z,18.60
2023-10-09T18:08:37.523Z,18.50
2023-10-09T18:11:07.388Z,18.50
2023-10-09T18:13:37.065Z,18.50
2023-10-09T18:16:09.362Z,18.50
2023-10-09T18:18:44.073Z,18.40
2023-10-09T18:21:18.096Z,18.40
2023-10-09T18:23:46.636Z,18.40
2023-10-09T18:26:16.346Z,18.40
2023-10-09T18:28:46.952Z,18.40
2023-10-09T18:31:18.830Z,18.40
2023-10-09T18:33:53.961Z,18.40
2023-10-09T18:36:22.948Z,18.40
2023-10-09T18:38:53.252Z,18.30
2023-10-09T18:41:25.024Z,18.30
2023-10-09T18:43:56.778Z,18.30
2023-10-09T18:46:28.160Z,18.30
2023-10-09T18:49:02.608Z,18.20
2023-10-09T18:51:33.576Z,18.20
2023-10-09T18:54:06.640Z,18.20
2023-10-09T18:56:35.772Z,18.20
2023-10-09T18:59:11.700Z,18.20
2023-10-09T19:01:40.729Z,18.20
2023-10-09T19:04:10.789Z,18.20
2023-10-09T19:06:39.463Z,18.20
2023-10-09T19:09:08.909Z,18.20
2023-10-09T19:11:40.156Z,18.20
2023-10-09T19:14:10.570Z,18.20
2023-10-09T19:16:42.383Z,18.10
2023-10-09T19:19:21.036Z,18.10
2023-10-09T19:21:54.398Z,18.10
2023-10-09T19:24:25.497Z,18.00
2023-10-09T19:26:53.975Z,18.00
2023-10-09T19:29:31.716Z,17.90
2023-10-09T19:31:59.981Z,17.80
2023-10-09T19:34:29.776Z,17.70
2023-10-09T19:36:57.741Z,17.60
2023-10-09T19:39:25.662Z,17.60
2023-10-09T19:41:53.685Z,17.50
2023-10-09T19:44:21.614Z,17.50
2023-10-09T19:46:49.809Z,17.50
2023-10-09T19:49:20.013Z,17.40
2023-10-09T19:51:51.053Z,17.40
2023-10-09T19:54:22.379Z,17.40
2023-10-09T19:56:50.820Z,17.30
2023-10-09T19:59:19.378Z,17.30
2023-10-09T20:01:49.136Z,17.30
2023-10-09T20:04:17.538Z,17.30
2023-10-09T20:06:46.589Z,17.30
2023-10-09T20:09:18.291Z,17.20
2023-10-09T20:11:46.686Z,17.20
2023-10-09T20:14:16.538Z,17.20
2023-10-09T20:16:44.688Z,17.20
2023-10-09T20:19:12.631Z,17.10
2023-10-09T20:21:40.610Z,17.10
2023-10-09T20:24:08.928Z,17.10
2023-10-09T20:26:42.836Z,17.10
2023-10-09T20:29:14.297Z,17.00
2023-10-09T20:31:45.802Z,16.90
2023-10-09T20:34:14.038Z,16.90
2023-10-09T20:36:43.252Z,16.80
2023-10-09T20:39:13.639Z,16.80
2023-10-09T20:41:43.345Z,16.80
2023-10-09T20:44:13.843Z,16.80
2023-10-09T20:46:43.815Z,16.80
2023-10-09T20:49:15.158Z,16.70
2023-10-09T20:51:56.560Z,16.70
2023-10-09T20:54:26.381Z,16.70
2023-10-09T20:56:56.793Z,16.70
2023-10-09T20:59:24.947Z,16.70
2023-10-09T21:01:53.702Z,16.70
2023-10-09T21:04:22.893Z,16.60
2023-10-09T21:06:50.850Z,16.50
2023-10-09T21:09:19.101Z,16.50
2023-10-09T21:11:47.932Z,16.50
2023-10-09T21:14:18.140Z,16.50
2023-10-09T21:16:47.254Z,16.50
2023-10-09T21:19:15.807Z,16.50
2023-10-09T21:21:44.251Z,16.50
2023-10-09T21:24:14.920Z,16.50
2023-10-09T21:26:45.549Z,16.50
2023-10-09T21:29:13.725Z,16.50
2023-10-09T21:31:43.260Z,16.50
2023-10-09T21:34:11.601Z,16.50
2023-10-09T21:36:39.551Z,16.40
2023-10-09T21:39:09.550Z,16.40
2023-10-09T21:41:38.567Z,16.40
2023-10-09T21:44:09.024Z,16.40
2023-10-09T21:46:36.926Z,16.30
2023-10-09T21:49:08.618Z,16.30
2023-10-09T21:51:38.386Z,16.30
2023-10-09T21:54:07.126Z,16.20
2023-10-09T21:56:35.681Z,16.20
2023-10-09T21:59:05.425Z,16.20
2023-10-09T22:01:35.086Z,16.20
2023-10-09T22:04:06.650Z,16.20
2023-10-09T22:06:36.069Z,16.10
2023-10-09T22:09:08.744Z,16.10
2023-10-09T22:11:38.763Z,16.00
2023-10-09T22:14:07.549Z,16.00
2023-10-09T22:16:35.633Z,16.00
2023-10-09T22:19:14.313Z,16.00
2023-10-09T22:21:48.542Z,16.00
2023-10-09T22:24:19.799Z,16.00
2023-10-09T22:26:48.832Z,15.90
2023-10-09T22:29:19.697Z,15.90
2023-10-09T22:31:48.399Z,15.80
2023-10-09T22:34:16.573Z,15.80
2023-10-09T22:36:54.322Z,15.70
2023-10-09T22:39:25.921Z,15.70
2023-10-09T22:41:55.478Z,15.70
2023-10-09T22:44:25.265Z,15.60
2023-10-09T22:46:56.543Z,15.60
2023-10-09T22:49:29.340Z,15.60
2023-10-09T22:51:58.659Z,15.60
2023-10-09T22:54:35.260Z,15.60
2023-10-09T22:57:04.471Z,15.60
2023-10-09T22:59:33.292Z,15.60
2023-10-09T23:02:01.510Z,15.60
2023-10-09T23:04:39.079Z,15.50
2023-10-09T23:07:15.834Z,15.50
2023-10-09T23:09:51.629Z,15.50
2023-10-09T23:12:24.255Z,15.50
2023-10-09T23:14:53.798Z,15.50
2023-10-09T23:17:43.543Z,15.50
2023-10-09T23:20:23.972Z,15.50
2023-10-09T23:22:53.736Z,15.50
2023-10-09T23:25:31.080Z,15.50
2023-10-09T23:28:13.388Z,15.50
2023-10-09T23:30:44.376Z,15.50
2023-10-09T23:33:21.463Z,15.50
2023-10-09T23:35:52.386Z,15.60
2023-10-09T23:38:32.600Z,15.50
2023-10-09T23:41:04.510Z,15.50
2023-10-09T23:43:36.458Z,15.50
2023-10-09T23:46:09.158Z,15.50
2023-10-09T23:48:38.608Z,15.50
2023-10-09T23:51:13.300Z,15.50
2023-10-09T23:53:47.723Z,15.50
2023-10-09T23:56:35.949Z,15.40
2023-10-09T23:59:12.175Z,15.40
